Pagina principale
METAR-TAF:

METAR-TAF

Aeroporti :

Berlevåg, Norvegia

latitudine: 70-52N, longitudine: 029-02E, altezza: 1 m

Osservazione

Il bollettino è stato emesso 4 ore e 3 minuti fa, alle 10:50 UTC
Vento 16 kt da est/nord-est
Temperature 7°C
Umidità 76%
Pressione 1001 hPa
Visibilità 10 km o più
Nubi sparse ad un'altezza di 2000 ft
Nuvoloso ad un'altezza di 3300 ft
rovesci di pioggia

METAR: ENBV 161050Z 06016KT 9999 -SHRA SCT020 BKN033 07/03 Q1001

Ora: 16:53 (14:53 UTC)

Previsione

Il bollettino è stato emesso 3 ore e 53 minuti fa, alle 11:00 UTC
Previsione valida dal 16 alle 12 UTC al 16 alle 21 UTC
Vento 18 kt da est/nord-est
Visibilità 10 km o più
Nubi sparse ad un'altezza di 1200 ft
Nuvoloso ad un'altezza di 3000 ft
rovesci di pioggia
Temporaneamente
dal 16 alle 12 UTC al 16 alle 21 UTC
Nuvoloso ad un'altezza di 1200 ft
rovesci di pioggia

TAF: ENBV 161100Z 1612/1621 07018KT 9999 -SHRA SCT012 BKN030 TEMPO 1612/1621 SHRA BKN012

Osservazioni e previsioni meteorologiche di più di 4000 aeroporti (messaggi METAR e TAF).

Le stazioni disponibili sono rappresentate dai dischi gialli e rossi sulla carta.

Puntare il mouse per vedere il nome della stazione.

Clicca sopra per visualizzare le osservazioni e previsioni meteorologiche.

Per cambiare la mappa : fare clic sui pulsanti verdi con una croce nera per ingrandire, il pulsante verde con un trattino per diminuire, o sulla freccia verde per le mappe adiacenti.


METAR-TAF: